Time;durP1;ratioP1;P1;durP2;ratioP2;P2;SDS_P1;SDS_P2;PMS_P1;PMS_P2;Temp;Humidity;BMP_temperature;BMP_pressure;BME280_temperature;BME280_humidity;BME280_pressure;Samples;Min_cycle;Max_cycle;Signal;HPM_P1;HPM_P2
2022/06/19 00:00:24;;;;;;;3.53;3.22;;;;;;;24.10;49.54;101538.78;5069789;28;20491;-72
2022/06/19 00:02:51;;;;;;;4.25;2.85;;;;;;;24.07;49.41;101539.25;5069386;28;20877;-73
2022/06/19 00:05:18;;;;;;;5.43;3.00;;;;;;;24.02;49.26;101531.84;5071528;28;20514;-71
2022/06/19 00:07:45;;;;;;;3.95;2.78;;;;;;;24.12;48.92;101533.13;5072498;28;20931;-71
2022/06/19 00:10:13;;;;;;;3.83;2.85;;;;;;;24.17;48.60;101534.03;5072361;28;20419;-72
2022/06/19 00:12:40;;;;;;;8.30;3.22;;;;;;;24.11;48.58;101524.19;5074577;28;20496;-72
2022/06/19 00:15:09;;;;;;;4.47;3.08;;;;;;;24.19;48.57;101523.78;5074662;28;20412;-71
2022/06/19 00:17:38;;;;;;;5.13;3.07;;;;;;;24.16;48.59;101529.66;5069221;28;20410;-72
2022/06/19 00:20:06;;;;;;;3.45;3.15;;;;;;;24.05;48.73;101525.13;5068799;28;20415;-73
2022/06/19 00:22:33;;;;;;;3.97;3.10;;;;;;;24.04;49.13;101526.19;5070677;28;20910;-72
2022/06/19 00:25:46;;;;;;;3.90;3.08;;;;;;;24.18;49.03;101529.44;5092391;27;20410;-72
2022/06/19 00:28:13;;;;;;;4.30;2.97;;;;;;;24.22;48.95;101527.91;5088442;28;20414;-69
2022/06/19 00:32:07;;;;;;;4.60;3.03;;;;;;;24.20;48.66;101536.28;5090939;27;20459;-71
2022/06/19 00:34:35;;;;;;;5.10;3.00;;;;;;;24.25;48.30;101543.66;5080853;28;20412;-72
2022/06/19 00:37:03;;;;;;;3.95;2.83;;;;;;;24.26;48.47;101537.19;5083640;28;20406;-73
2022/06/19 00:39:32;;;;;;;4.93;2.90;;;;;;;24.37;48.17;101539.03;5080041;28;20418;-73
2022/06/19 00:42:00;;;;;;;5.28;3.20;;;;;;;24.46;47.98;101541.34;5082396;28;20410;-71
2022/06/19 00:44:27;;;;;;;5.43;3.47;;;;;;;24.49;47.68;101546.28;5080403;28;20911;-71
2022/06/19 00:46:56;;;;;;;7.35;3.83;;;;;;;24.43;48.16;101545.34;5080671;28;20498;-72
2022/06/19 00:49:28;;;;;;;5.47;3.95;;;;;;;24.45;48.24;101545.94;5081601;28;20414;-73
2022/06/19 00:52:02;;;;;;;8.02;4.22;;;;;;;24.45;47.84;101539.69;5081552;28;20514;-71
2022/06/19 00:54:33;;;;;;;5.87;4.10;;;;;;;24.41;47.91;101532.03;5081043;28;20938;-72
2022/06/19 00:57:00;;;;;;;5.05;4.43;;;;;;;24.37;47.99;101532.78;5081347;28;20422;-72
2022/06/19 00:59:27;;;;;;;5.70;4.10;;;;;;;24.34;48.10;101534.06;5080821;28;20406;-73
2022/06/19 01:01:54;;;;;;;9.35;3.63;;;;;;;24.28;47.83;101534.25;5083424;28;20529;-72
2022/06/19 01:04:28;;;;;;;8.40;4.00;;;;;;;24.22;47.83;101539.56;5080468;28;20444;-73
2022/06/19 01:06:57;;;;;;;4.50;4.03;;;;;;;24.16;47.77;101537.78;5079670;28;20796;-73
2022/06/19 01:09:24;;;;;;;8.35;4.07;;;;;;;24.12;47.89;101533.94;5078938;28;20485;-72
2022/06/19 01:11:52;;;;;;;4.15;3.72;;;;;;;24.08;48.15;101537.38;5080150;28;20437;-73
2022/06/19 01:14:24;;;;;;;7.22;3.80;;;;;;;24.03;47.89;101540.78;5080302;28;20409;-72
2022/06/19 01:16:51;;;;;;;6.20;4.32;;;;;;;23.95;48.09;101541.16;5080531;28;20934;-72
2022/06/19 01:19:25;;;;;;;4.00;3.63;;;;;;;23.90;48.26;101538.38;5081779;28;20493;-73
2022/06/19 01:22:04;;;;;;;6.38;3.47;;;;;;;23.86;47.90;101535.31;5077581;28;20432;-72
2022/06/19 01:24:44;;;;;;;5.47;3.50;;;;;;;23.84;48.01;101535.53;5084676;28;20438;-72
2022/06/19 01:28:45;;;;;;;5.07;3.53;;;;;;;23.82;47.80;101539.53;5081589;28;20982;-73
2022/06/19 01:30:04;;;;;;;6.13;3.67;;;;;;;23.79;47.87;101542.72;5080219;28;20398;-71
2022/06/19 01:32:32;;;;;;;4.75;3.40;;;;;;;23.73;47.86;101533.63;5076389;28;20412;-72
2022/06/19 01:35:01;;;;;;;4.03;3.50;;;;;;;23.71;47.90;101534.94;5081635;28;20422;-72
2022/06/19 01:37:30;;;;;;;7.43;3.70;;;;;;;23.69;47.70;101532.47;5080187;28;20410;-71
2022/06/19 01:40:02;;;;;;;5.73;3.77;;;;;;;23.64;47.93;101532.34;5079996;28;20416;-71
2022/06/19 01:42:31;;;;;;;4.78;3.30;;;;;;;23.58;47.74;101531.44;5071607;28;20415;-71
2022/06/19 01:44:59;;;;;;;4.07;3.50;;;;;;;23.53;47.94;101527.78;5068944;28;20410;-72
2022/06/19 01:47:27;;;;;;;5.93;3.88;;;;;;;23.48;48.32;101529.31;5066974;28;20425;-70
2022/06/19 01:51:56;;;;;;;4.00;3.60;;;;;;;23.42;48.57;101532.16;5083901;27;2071448;-73
2022/06/19 01:54:28;;;;;;;6.90;3.95;;;;;;;23.38;48.43;101541.81;5144923;27;20488;-73
2022/06/19 01:56:56;;;;;;;3.83;3.50;;;;;;;23.37;48.36;101540.13;5145065;27;20412;-74
2022/06/19 01:59:25;;;;;;;6.63;3.83;;;;;;;23.34;48.76;101538.75;5144639;27;20413;-73
2022/06/19 02:01:54;;;;;;;4.90;4.13;;;;;;;23.33;48.42;101547.09;5143040;27;20500;-73
2022/06/19 02:04:23;;;;;;;10.90;4.95;;;;;;;23.32;48.53;101546.28;5146144;27;20636;-73
2022/06/19 02:06:54;;;;;;;5.82;4.20;;;;;;;23.29;48.47;101542.13;5146098;27;20492;-72
2022/06/19 02:09:23;;;;;;;4.35;3.72;;;;;;;23.29;48.45;101552.97;5146889;27;20420;-73
2022/06/19 02:11:51;;;;;;;5.07;3.83;;;;;;;23.26;48.60;101555.31;5141423;27;20421;-73
2022/06/19 02:14:20;;;;;;;4.38;3.78;;;;;;;23.24;48.71;101547.44;5144920;27;20492;-71
2022/06/19 02:16:49;;;;;;;4.05;3.60;;;;;;;23.23;48.80;101548.50;5143194;27;20488;-72
2022/06/19 02:19:16;;;;;;;4.50;3.53;;;;;;;23.22;48.67;101551.44;5143587;27;20425;-74
2022/06/19 02:21:46;;;;;;;4.38;3.63;;;;;;;23.20;48.67;101546.25;5145609;27;20413;-72
2022/06/19 02:26:45;;;;;;;6.50;3.78;;;;;;;23.14;48.50;101544.50;5075505;27;20404;-73
2022/06/19 02:29:16;;;;;;;4.75;3.60;;;;;;;23.13;48.57;101553.66;5070154;28;20521;-73
2022/06/19 02:31:46;;;;;;;4.25;3.50;;;;;;;23.13;48.94;101561.78;5069128;28;20797;-74
2022/06/19 02:34:19;;;;;;;5.72;3.22;;;;;;;23.13;48.49;101559.06;5066621;28;20420;-74
2022/06/19 02:36:49;;;;;;;3.80;3.17;;;;;;;23.10;48.27;101562.22;5071719;28;20431;-72
2022/06/19 02:39:25;;;;;;;5.22;3.88;;;;;;;23.09;48.42;101560.59;5070204;28;20974;-74
2022/06/19 02:42:00;;;;;;;5.88;3.40;;;;;;;23.08;48.30;101558.94;5071426;28;20506;-74
2022/06/19 02:44:33;;;;;;;4.13;3.47;;;;;;;23.06;48.43;101569.16;5066798;28;20447;-73
2022/06/19 02:46:59;;;;;;;4.15;3.53;;;;;;;23.04;48.45;101577.50;5069002;28;20810;-73
2022/06/19 02:49:27;;;;;;;5.00;3.10;;;;;;;23.02;48.18;101578.78;5071516;28;20432;-73
2022/06/19 02:51:53;;;;;;;5.00;3.30;;;;;;;23.03;48.05;101580.41;5071587;28;21007;-73
2022/06/19 02:54:20;;;;;;;4.37;3.10;;;;;;;23.00;48.09;101576.28;5070704;28;20430;-73
2022/06/19 02:56:47;;;;;;;3.17;2.88;;;;;;;23.00;47.94;101572.78;5067053;28;20412;-72
2022/06/19 02:59:16;;;;;;;3.22;2.90;;;;;;;22.93;47.84;101583.69;5069395;28;20505;-73
2022/06/19 03:01:42;;;;;;;5.20;3.25;;;;;;;22.93;47.83;101582.88;5068025;28;20486;-74
2022/06/19 03:04:18;;;;;;;4.78;3.30;;;;;;;22.92;47.81;101579.31;5069932;28;20447;-73
2022/06/19 03:06:45;;;;;;;3.50;3.00;;;;;;;22.91;47.59;101586.63;5068651;28;20561;-73
2022/06/19 03:09:12;;;;;;;3.30;3.00;;;;;;;22.85;47.67;101589.41;5073477;28;20417;-74
2022/06/19 03:11:39;;;;;;;4.25;3.03;;;;;;;22.80;47.51;101587.41;5068559;28;20416;-73
2022/06/19 03:14:06;;;;;;;3.20;2.92;;;;;;;22.80;47.57;101587.41;5069506;28;20539;-73
2022/06/19 03:16:34;;;;;;;4.27;3.20;;;;;;;22.79;47.59;101601.97;5067591;28;20422;-73
2022/06/19 03:19:01;;;;;;;3.55;3.20;;;;;;;22.78;47.61;101594.09;5068747;28;20866;-73
2022/06/19 03:21:29;;;;;;;3.95;3.22;;;;;;;22.75;47.54;101597.28;5067082;28;20427;-73
2022/06/19 03:23:56;;;;;;;3.15;2.85;;;;;;;22.75;47.83;101595.38;5066011;28;20470;-72
2022/06/19 03:26:23;;;;;;;4.38;3.70;;;;;;;22.75;47.97;101594.56;5068589;28;20438;-73
2022/06/19 03:28:50;;;;;;;3.92;3.20;;;;;;;22.78;47.84;101594.09;5067364;28;20419;-73
2022/06/19 03:31:22;;;;;;;7.30;3.25;;;;;;;22.82;47.79;101596.13;5068816;28;20493;-71
2022/06/19 03:33:51;;;;;;;4.15;3.20;;;;;;;22.87;47.66;101600.84;5066206;28;20499;-73
2022/06/19 03:36:19;;;;;;;3.67;3.30;;;;;;;22.90;47.73;101587.69;5068722;28;20492;-74
2022/06/19 03:38:46;;;;;;;4.22;3.38;;;;;;;22.96;47.36;101593.19;5054839;28;20503;-73
2022/06/19 03:41:14;;;;;;;5.82;3.03;;;;;;;23.01;47.55;101596.03;5055320;28;20496;-72
2022/06/19 03:43:42;;;;;;;4.63;3.40;;;;;;;23.11;47.54;101595.53;5053815;28;20409;-72
2022/06/19 03:46:13;;;;;;;3.92;3.08;;;;;;;23.21;47.23;101598.47;5054799;28;20435;-73
2022/06/19 03:48:40;;;;;;;5.03;3.60;;;;;;;23.28;47.14;101591.06;5055186;28;20430;-72
2022/06/19 03:51:09;;;;;;;3.50;3.20;;;;;;;23.41;46.60;101603.56;5055841;28;20428;-71
2022/06/19 03:53:36;;;;;;;5.28;3.35;;;;;;;23.54;46.17;101602.50;5054996;28;21887;-72
2022/06/19 03:56:05;;;;;;;5.82;3.20;;;;;;;23.66;46.02;101598.75;5051500;28;20423;-72
2022/06/19 04:01:14;;;;;;;3.77;3.00;;;;;;;23.94;45.36;101599.09;5061511;28;20415;-72
2022/06/19 04:03:41;;;;;;;3.73;3.20;;;;;;;24.10;45.18;101602.97;5052590;28;20846;-72
2022/06/19 04:06:11;;;;;;;4.38;3.45;;;;;;;24.23;44.82;101600.78;5054579;28;20972;-72
2022/06/19 04:08:38;;;;;;;4.72;3.08;;;;;;;24.34;44.39;101609.13;5053845;28;20416;-72
2022/06/19 04:11:05;;;;;;;3.20;3.00;;;;;;;24.46;44.47;101609.09;5058343;28;20507;-72
2022/06/19 04:13:34;;;;;;;4.55;3.70;;;;;;;24.56;44.12;101612.88;5053260;28;20511;-71
2022/06/19 04:16:01;;;;;;;4.40;4.00;;;;;;;24.74;43.83;101616.44;5052844;28;20508;-71
2022/06/19 04:18:30;;;;;;;4.95;3.60;;;;;;;24.91;43.56;101620.00;5056293;28;20810;-72
2022/06/19 04:20:57;;;;;;;3.95;3.38;;;;;;;25.07;43.14;101615.69;5054557;28;20924;-71
2022/06/19 04:23:26;;;;;;;3.63;3.13;;;;;;;25.22;42.80;101608.88;5054799;28;20438;-71
2022/06/19 04:25:53;;;;;;;4.30;3.50;;;;;;;25.37;42.38;101617.28;5053487;28;20428;-71
2022/06/19 04:28:24;;;;;;;9.55;4.20;;;;;;;25.53;42.40;101616.47;5052699;28;20417;-70
2022/06/19 04:30:51;;;;;;;4.75;3.42;;;;;;;25.66;41.58;101614.44;5053696;28;20426;-71
2022/06/19 04:33:20;;;;;;;3.90;3.50;;;;;;;25.69;41.57;101616.69;5055939;28;20505;-71
2022/06/19 04:35:48;;;;;;;4.78;3.58;;;;;;;25.77;41.46;101613.53;5054635;28;20416;-70
2022/06/19 04:38:15;;;;;;;4.20;3.78;;;;;;;25.84;41.52;101621.50;5052935;28;20412;-71
2022/06/19 04:40:44;;;;;;;4.60;3.90;;;;;;;25.99;41.44;101613.59;5051135;28;20933;-70
2022/06/19 04:43:12;;;;;;;5.40;3.50;;;;;;;26.23;41.19;101614.16;5052536;28;20421;-71
2022/06/19 04:45:40;;;;;;;4.47;3.50;;;;;;;26.53;40.35;101615.59;5053114;28;20433;-70
2022/06/19 04:48:08;;;;;;;4.03;3.58;;;;;;;27.00;39.69;101620.44;5050592;28;20508;-69
2022/06/19 04:50:35;;;;;;;5.77;3.60;;;;;;;27.46;39.03;101612.69;5052931;28;20819;-68
2022/06/19 04:53:02;;;;;;;4.53;3.83;;;;;;;27.83;38.31;101614.53;5052484;28;20494;-68
2022/06/19 04:55:29;;;;;;;6.95;3.47;;;;;;;28.18;37.79;101609.53;5051922;28;20499;-68
2022/06/19 04:58:02;;;;;;;4.22;3.60;;;;;;;28.41;36.76;101605.53;5057959;28;20914;-68
2022/06/19 05:00:29;;;;;;;4.03;3.63;;;;;;;28.64;36.29;101615.16;5069641;28;20937;-68
2022/06/19 05:02:56;;;;;;;4.00;3.50;;;;;;;28.96;36.06;101614.13;5068641;28;20955;-68
2022/06/19 05:05:24;;;;;;;5.57;3.60;;;;;;;29.24;35.36;101618.25;5067103;28;20419;-68
2022/06/19 05:07:51;;;;;;;4.97;3.50;;;;;;;29.21;35.22;101616.06;5062914;28;20874;-68
2022/06/19 05:10:18;;;;;;;5.57;4.20;;;;;;;29.60;34.51;101618.19;5068139;28;20494;-69
2022/06/19 05:12:45;;;;;;;4.65;3.63;;;;;;;29.72;34.42;101617.91;5065690;28;20429;-69
2022/06/19 05:15:13;;;;;;;5.50;3.80;;;;;;;29.77;34.36;101617.13;5068004;28;20501;-73
2022/06/19 05:17:40;;;;;;;4.22;3.72;;;;;;;29.93;33.90;101611.31;5068569;28;20402;-73
2022/06/19 05:20:08;;;;;;;4.18;3.60;;;;;;;29.92;34.19;101619.78;5066453;28;20418;-74
2022/06/19 05:22:35;;;;;;;4.93;3.53;;;;;;;30.21;33.58;101619.13;5068204;28;20419;-73
2022/06/19 05:25:04;;;;;;;4.30;3.90;;;;;;;30.42;33.15;101617.94;5067876;28;20418;-74
2022/06/19 05:27:31;;;;;;;3.83;3.53;;;;;;;30.50;33.40;101624.75;5068148;28;20517;-75
2022/06/19 05:29:58;;;;;;;4.22;3.85;;;;;;;30.68;33.20;101628.75;5067925;28;20916;-75
2022/06/19 05:32:27;;;;;;;6.17;3.70;;;;;;;30.72;32.75;101623.50;5069758;28;20411;-75
2022/06/19 05:34:54;;;;;;;4.35;3.95;;;;;;;30.55;32.84;101626.63;5063845;28;20411;-75
2022/06/19 05:37:21;;;;;;;5.72;4.07;;;;;;;30.64;33.30;101625.75;5067382;28;20827;-74
2022/06/19 05:39:48;;;;;;;4.38;3.97;;;;;;;30.84;32.76;101627.53;5068825;28;20485;-74
2022/06/19 05:42:15;;;;;;;6.37;4.43;;;;;;;31.10;32.51;101634.75;5064768;28;20498;-79
2022/06/19 05:44:42;;;;;;;4.88;4.30;;;;;;;31.18;31.80;101634.97;5062296;28;20499;-74
2022/06/19 05:47:09;;;;;;;4.20;3.80;;;;;;;31.27;32.05;101634.34;5060917;28;20446;-75
2022/06/19 05:49:38;;;;;;;4.15;3.83;;;;;;;31.35;31.71;101626.34;5061502;28;20412;-74
2022/06/19 05:52:15;;;;;;;5.38;4.53;;;;;;;31.34;31.63;101635.66;5054260;28;20418;-76
2022/06/19 05:54:43;;;;;;;4.75;4.25;;;;;;;31.45;31.53;101628.94;5070463;28;20924;-76
2022/06/19 05:57:09;;;;;;;5.15;4.28;;;;;;;31.88;30.91;101636.50;5059325;28;20411;-77
2022/06/19 05:59:36;;;;;;;6.57;4.60;;;;;;;32.13;31.00;101623.63;5066172;28;20410;-76
2022/06/19 06:02:04;;;;;;;5.20;3.92;;;;;;;32.60;30.21;101627.38;5064650;28;20693;-77
2022/06/19 06:04:31;;;;;;;4.40;3.97;;;;;;;32.90;29.40;101625.25;5056629;28;20427;-77
2022/06/19 06:06:59;;;;;;;4.60;4.20;;;;;;;32.83;29.43;101628.41;5047429;28;20432;-67
2022/06/19 06:09:26;;;;;;;4.82;4.10;;;;;;;33.12;29.00;101622.75;5046593;28;20500;-68
2022/06/19 06:11:53;;;;;;;4.00;3.70;;;;;;;33.09;28.88;101625.25;5050171;28;20463;-68
2022/06/19 06:14:21;;;;;;;5.28;3.83;;;;;;;32.78;29.13;101622.19;5053779;28;20929;-68
2022/06/19 06:16:49;;;;;;;4.05;3.75;;;;;;;33.00;29.01;101616.88;5053605;28;20444;-67
2022/06/19 06:19:16;;;;;;;5.57;3.60;;;;;;;32.87;28.33;101614.91;5058737;28;20497;-66
2022/06/19 06:24:29;;;;;;;3.87;3.53;;;;;;;32.50;29.37;101625.59;5051254;28;20800;-67
2022/06/19 06:26:57;;;;;;;4.38;3.58;;;;;;;33.21;28.44;101622.06;5061424;28;20424;-67
2022/06/19 06:29:25;;;;;;;3.65;3.28;;;;;;;33.67;28.02;101616.56;5067743;28;20820;-65
2022/06/19 06:31:52;;;;;;;4.90;3.20;;;;;;;34.06;27.05;101623.44;5054225;28;20777;-67
2022/06/19 06:34:19;;;;;;;4.07;3.33;;;;;;;34.51;26.55;101622.78;5053406;28;20448;-67
2022/06/19 06:36:46;;;;;;;3.92;3.47;;;;;;;34.81;26.41;101615.75;5067153;28;20785;-67
2022/06/19 06:39:12;;;;;;;4.45;3.53;;;;;;;35.37;25.49;101615.47;5069033;28;20493;-67
2022/06/19 06:41:41;;;;;;;5.23;3.60;;;;;;;35.90;25.17;101617.31;5066013;28;20414;-67
2022/06/19 06:44:13;;;;;;;3.72;3.42;;;;;;;35.95;24.50;101617.16;5061912;28;20404;-68
2022/06/19 06:46:40;;;;;;;3.70;3.20;;;;;;;36.48;24.24;101615.31;5059100;28;20427;-68
2022/06/19 06:49:07;;;;;;;3.67;3.13;;;;;;;36.86;23.78;101616.59;5056066;28;20416;-67
2022/06/19 06:51:34;;;;;;;3.30;3.00;;;;;;;37.05;23.22;101608.75;5066586;28;20422;-69
2022/06/19 06:54:01;;;;;;;3.70;3.30;;;;;;;36.57;23.24;101601.50;5068434;28;20494;-68
2022/06/19 06:56:32;;;;;;;3.80;3.40;;;;;;;35.93;24.37;101610.34;5065545;28;20972;-68
2022/06/19 06:59:01;;;;;;;5.55;3.22;;;;;;;34.89;25.84;101605.91;5058060;28;20973;-67
2022/06/19 07:01:29;;;;;;;4.18;3.22;;;;;;;34.89;25.44;101602.38;5068590;28;20506;-68
2022/06/19 07:03:56;;;;;;;3.60;3.10;;;;;;;34.76;25.95;101595.81;5062058;28;20427;-68
2022/06/19 07:06:24;;;;;;;4.07;3.25;;;;;;;34.16;26.44;101597.66;5054487;28;20438;-68
2022/06/19 07:08:51;;;;;;;4.43;3.20;;;;;;;33.87;26.39;101598.84;5055326;28;20916;-67
2022/06/19 07:11:24;;;;;;;5.85;3.33;;;;;;;33.97;26.92;101599.72;5056031;28;20872;-67
2022/06/19 07:13:52;;;;;;;4.90;3.42;;;;;;;33.56;27.33;101600.53;5052199;28;20418;-68
2022/06/19 07:16:20;;;;;;;4.72;3.80;;;;;;;33.01;28.34;101599.28;5064844;28;20415;-67
2022/06/19 07:18:47;;;;;;;4.57;3.53;;;;;;;32.94;28.26;101593.34;5067981;28;20412;-68
2022/06/19 07:21:14;;;;;;;5.25;3.72;;;;;;;32.93;29.08;101597.22;5063199;28;20433;-67
2022/06/19 07:23:42;;;;;;;4.18;3.78;;;;;;;32.56;29.03;101596.94;5057816;28;20427;-67
2022/06/19 07:26:11;;;;;;;3.70;3.40;;;;;;;32.32;29.53;101593.44;5063380;28;20565;-67
2022/06/19 07:28:38;;;;;;;4.35;3.58;;;;;;;32.03;30.53;101585.31;5052000;28;20793;-67
2022/06/19 07:31:06;;;;;;;4.37;3.37;;;;;;;32.14;30.46;101593.16;5052454;28;20424;-67
2022/06/19 07:33:35;;;;;;;3.70;3.40;;;;;;;32.14;30.44;101584.94;5058423;28;20488;-68
2022/06/19 07:36:02;;;;;;;3.85;3.55;;;;;;;31.98;30.28;101584.28;5072335;28;20403;-68
2022/06/19 07:38:29;;;;;;;4.43;3.60;;;;;;;31.74;30.80;101587.03;5057988;28;20418;-67
2022/06/19 07:40:56;;;;;;;5.25;3.63;;;;;;;31.71;31.42;101584.88;5061282;28;20423;-67
2022/06/19 07:43:24;;;;;;;4.85;3.45;;;;;;;31.58;31.27;101593.78;5065581;28;20488;-67
2022/06/19 07:45:51;;;;;;;5.90;3.47;;;;;;;31.61;30.68;101593.22;5061285;28;20419;-67
2022/06/19 07:51:04;;;;;;;4.65;3.40;;;;;;;31.73;31.11;101579.09;5061948;28;20406;-68
2022/06/19 07:53:31;;;;;;;4.10;3.35;;;;;;;31.49;31.41;101579.91;5057772;28;20413;-67
2022/06/19 07:55:58;;;;;;;4.70;3.20;;;;;;;31.36;31.91;101586.03;5071951;28;20415;-67
2022/06/19 07:58:25;;;;;;;4.82;3.40;;;;;;;31.03;32.13;101575.66;5071333;28;20425;-67
2022/06/19 08:00:52;;;;;;;3.67;3.17;;;;;;;31.20;32.07;101567.00;5071510;28;20422;-67
2022/06/19 08:03:19;;;;;;;3.53;3.22;;;;;;;31.32;32.18;101571.31;5058413;28;20503;-68
2022/06/19 08:05:46;;;;;;;4.53;3.30;;;;;;;31.38;31.95;101568.19;5056829;28;20433;-67
2022/06/19 08:08:18;;;;;;;3.50;3.20;;;;;;;31.45;31.86;101565.94;5059804;28;20428;-68
2022/06/19 08:10:50;;;;;;;3.42;3.10;;;;;;;31.17;32.06;101566.78;5055849;28;20541;-67
2022/06/19 08:13:19;;;;;;;3.70;3.10;;;;;;;31.19;31.72;101559.91;5071756;28;20415;-67
2022/06/19 08:15:47;;;;;;;4.35;2.92;;;;;;;31.27;31.42;101563.13;5067788;28;20413;-67
2022/06/19 08:18:14;;;;;;;4.07;3.28;;;;;;;31.31;31.93;101553.22;5061200;28;20930;-67
2022/06/19 08:20:41;;;;;;;3.13;2.80;;;;;;;31.38;31.90;101554.50;5071210;28;20441;-68
2022/06/19 08:23:08;;;;;;;3.13;2.83;;;;;;;31.40;31.30;101562.44;5071362;28;20411;-67
2022/06/19 08:25:37;;;;;;;4.50;3.00;;;;;;;31.04;32.10;101560.88;5070996;28;20498;-69
2022/06/19 08:28:04;;;;;;;4.38;2.45;;;;;;;31.00;32.02;101550.78;5067924;28;20439;-67
2022/06/19 08:30:33;;;;;;;2.83;2.60;;;;;;;31.08;32.23;101544.69;5051066;28;20420;-67
2022/06/19 08:33:00;;;;;;;3.70;2.90;;;;;;;30.50;32.09;101556.34;5052702;28;20413;-67
2022/06/19 08:35:30;;;;;;;3.55;2.72;;;;;;;30.64;32.23;101545.56;5063114;28;20918;-67
2022/06/19 08:38:03;;;;;;;3.22;2.60;;;;;;;30.39;32.63;101552.84;5065264;28;20517;-67
2022/06/19 08:41:10;;;;;;;2.63;2.42;;;;;;;30.33;32.31;101544.94;5063385;28;20929;-68
2022/06/19 08:43:52;;;;;;;3.00;2.70;;;;;;;30.48;33.16;101537.47;5064875;28;20428;-68
2022/06/19 08:46:28;;;;;;;3.78;2.65;;;;;;;30.42;32.17;101541.34;5050831;28;20442;-68
2022/06/19 08:49:16;;;;;;;3.93;2.70;;;;;;;30.53;32.62;101542.09;5057293;28;20987;-67
2022/06/19 08:51:53;;;;;;;2.95;2.42;;;;;;;30.71;31.83;101537.06;5056570;28;20442;-68
2022/06/19 08:54:37;;;;;;;3.10;2.40;;;;;;;30.79;31.81;101539.16;5070722;28;20486;-67
2022/06/19 08:57:15;;;;;;;4.10;2.58;;;;;;;30.54;31.89;101537.44;5066507;28;20806;-68
2022/06/19 08:59:57;;;;;;;2.97;2.45;;;;;;;30.57;31.87;101531.41;5050414;28;20408;-68
2022/06/19 09:02:35;;;;;;;4.15;2.25;;;;;;;30.40;32.09;101526.34;5064479;28;20500;-67
2022/06/19 09:08:12;;;;;;;3.10;2.30;;;;;;;30.59;31.60;101524.53;5059048;28;20438;-67
2022/06/19 09:10:46;;;;;;;2.45;2.00;;;;;;;30.73;31.56;101521.16;5056885;28;20406;-67
2022/06/19 09:13:43;;;;;;;3.88;2.20;;;;;;;30.91;31.17;101523.19;5067468;28;20900;-67
2022/06/19 09:16:21;;;;;;;3.38;2.00;;;;;;;30.98;31.15;101520.94;5048941;28;20415;-67
2022/06/19 09:18:55;;;;;;;1.60;1.50;;;;;;;31.03;29.00;101517.34;5062957;28;20497;-68
2022/06/19 09:21:29;;;;;;;2.55;1.50;;;;;;;31.10;28.34;101515.09;5064372;28;20497;-67
2022/06/19 09:24:19;;;;;;;2.20;1.50;;;;;;;31.19;27.99;101507.88;5062791;28;20935;-68
2022/06/19 09:26:51;;;;;;;2.85;1.77;;;;;;;31.20;27.87;101505.94;5069830;28;20936;-67
2022/06/19 09:29:23;;;;;;;2.03;1.83;;;;;;;31.28;28.52;101504.47;5054523;28;20423;-67
2022/06/19 09:31:56;;;;;;;1.98;1.70;;;;;;;31.31;28.44;101509.38;5055972;28;20502;-68
2022/06/19 09:34:31;;;;;;;2.38;1.50;;;;;;;31.31;27.37;101510.19;5069275;28;20531;-67
2022/06/19 09:37:20;;;;;;;1.98;1.40;;;;;;;31.34;27.22;101501.41;5056374;28;20633;-67
2022/06/19 09:39:51;;;;;;;1.50;1.40;;;;;;;31.36;27.28;101501.94;5067970;28;20803;-68
2022/06/19 09:42:23;;;;;;;2.50;1.40;;;;;;;31.49;27.27;101505.09;5049654;28;20499;-68
2022/06/19 09:44:57;;;;;;;3.07;1.50;;;;;;;31.47;26.83;101502.63;5063414;28;20419;-67
2022/06/19 09:47:34;;;;;;;1.73;1.50;;;;;;;31.39;26.89;101501.34;5049783;28;20428;-68
2022/06/19 09:50:08;;;;;;;2.67;1.65;;;;;;;31.35;27.20;101508.53;5064922;28;20969;-68
2022/06/19 09:52:41;;;;;;;2.78;1.58;;;;;;;31.31;27.43;101501.97;5069398;28;20909;-68
2022/06/19 09:55:16;;;;;;;3.40;1.43;;;;;;;31.30;26.71;101508.59;5055153;28;20798;-68
2022/06/19 09:57:47;;;;;;;1.80;1.40;;;;;;;31.17;26.60;101498.31;5069387;28;20411;-67
2022/06/19 10:00:21;;;;;;;1.83;1.50;;;;;;;30.97;26.15;101502.91;5067534;28;20432;-68
2022/06/19 10:02:55;;;;;;;2.00;1.70;;;;;;;30.77;26.27;101503.03;5058502;28;20418;-67
2022/06/19 10:05:32;;;;;;;3.03;1.40;;;;;;;30.77;26.56;101503.03;5053274;28;20488;-68
2022/06/19 10:08:04;;;;;;;2.23;1.40;;;;;;;30.42;26.14;101494.84;5049522;28;20436;-68
2022/06/19 10:10:37;;;;;;;1.40;1.30;;;;;;;30.51;26.45;101488.78;5066130;28;20486;-68
2022/06/19 10:13:10;;;;;;;1.65;1.20;;;;;;;30.73;26.77;101483.66;5069193;28;20419;-68
2022/06/19 10:15:38;;;;;;;1.50;1.40;;;;;;;30.87;26.96;101487.34;5055170;28;20421;-68
2022/06/19 10:18:12;;;;;;;3.40;1.70;;;;;;;30.98;26.60;101479.06;5060878;28;20506;-68
2022/06/19 10:20:49;;;;;;;1.45;1.30;;;;;;;31.13;26.63;101481.63;5064889;28;20407;-67
2022/06/19 10:23:25;;;;;;;1.33;1.23;;;;;;;31.25;26.29;101471.09;5069046;28;21000;-68
2022/06/19 10:26:08;;;;;;;1.33;1.23;;;;;;;31.33;25.97;101471.56;5051928;28;20590;-67
2022/06/19 10:29:15;;;;;;;1.40;1.30;;;;;;;31.34;24.95;101467.72;5048782;28;20797;-68
2022/06/19 10:31:56;;;;;;;2.15;1.30;;;;;;;31.03;25.33;101463.41;5046579;28;20500;-68
2022/06/19 10:34:35;;;;;;;1.70;1.25;;;;;;;31.27;25.38;101464.53;5062044;28;20421;-67
2022/06/19 10:37:12;;;;;;;2.13;1.45;;;;;;;31.35;25.42;101459.22;5068976;28;20485;-67
2022/06/19 10:39:52;;;;;;;3.80;1.70;;;;;;;31.44;25.63;101460.19;5068477;28;20498;-67
2022/06/19 10:42:31;;;;;;;3.17;1.40;;;;;;;31.48;25.91;101454.13;5057216;28;20409;-67
2022/06/19 10:45:23;;;;;;;1.75;1.33;;;;;;;31.48;25.76;101448.66;5066601;28;20415;-68
2022/06/19 10:48:06;;;;;;;1.63;1.52;;;;;;;31.60;26.04;101449.88;5051535;28;20424;-67
2022/06/19 10:50:44;;;;;;;1.63;1.40;;;;;;;31.73;25.75;101439.28;5053232;28;20499;-67
2022/06/19 10:53:31;;;;;;;1.80;1.38;;;;;;;31.81;24.97;101441.38;5053176;28;20419;-68
2022/06/19 10:56:09;;;;;;;1.55;1.45;;;;;;;31.82;24.97;101441.09;5061420;28;20442;-68
2022/06/19 10:58:37;;;;;;;3.03;1.40;;;;;;;31.83;24.51;101436.41;5072457;28;20864;-68
2022/06/19 11:01:06;;;;;;;1.70;1.38;;;;;;;31.90;24.58;101430.56;5072874;28;20417;-68
2022/06/19 11:06:28;;;;;;;2.30;1.50;;;;;;;31.96;24.58;101430.19;5062498;28;20953;-68
2022/06/19 11:08:59;;;;;;;2.40;1.60;;;;;;;31.66;24.14;101423.22;5055500;28;20936;-67
2022/06/19 11:11:27;;;;;;;1.50;1.40;;;;;;;31.77;24.96;101423.91;5072813;28;21006;-68
2022/06/19 11:14:02;;;;;;;1.67;1.50;;;;;;;31.86;24.52;101418.56;5058428;28;20470;-67
2022/06/19 11:16:30;;;;;;;1.60;1.50;;;;;;;31.97;24.42;101428.25;5063146;28;20422;-68
2022/06/19 11:18:58;;;;;;;1.70;1.50;;;;;;;32.04;25.19;101422.44;5066602;28;20489;-68
2022/06/19 11:21:29;;;;;;;1.70;1.60;;;;;;;32.09;24.94;101414.09;5052238;28;20413;-68
2022/06/19 11:23:58;;;;;;;2.25;1.75;;;;;;;32.05;24.67;101416.63;5066834;28;20972;-68
2022/06/19 11:26:34;;;;;;;3.03;1.60;;;;;;;31.95;24.94;101414.03;5072630;28;20796;-67
2022/06/19 11:29:04;;;;;;;2.13;1.75;;;;;;;32.07;24.72;101419.06;5057460;28;20435;-67
2022/06/19 11:31:33;;;;;;;1.52;1.42;;;;;;;32.20;24.20;101413.66;5055529;28;20418;-67
2022/06/19 11:34:06;;;;;;;2.47;1.60;;;;;;;32.31;24.00;101413.50;5062866;28;20511;-67
2022/06/19 11:36:38;;;;;;;3.57;1.50;;;;;;;32.32;24.04;101418.69;5051905;28;21149;-68
2022/06/19 11:39:37;;;;;;;1.60;1.50;;;;;;;32.41;23.07;101404.25;5052210;28;20412;-67
2022/06/19 11:42:35;;;;;;;2.07;1.50;;;;;;;32.43;23.49;101399.28;5052035;28;21096;-67
2022/06/19 11:45:06;;;;;;;3.05;1.45;;;;;;;32.25;24.19;101399.06;5053773;28;20408;-68
2022/06/19 11:47:40;;;;;;;3.33;1.60;;;;;;;32.12;24.49;101400.59;5062623;28;20490;-68
2022/06/19 11:50:27;;;;;;;3.63;1.70;;;;;;;31.82;24.21;101396.41;5053877;28;20421;-68
2022/06/19 11:53:00;;;;;;;1.65;1.55;;;;;;;31.85;24.20;101384.81;5060329;28;20420;-68
2022/06/19 11:55:31;;;;;;;1.60;1.50;;;;;;;31.81;23.86;101383.81;5065645;28;20404;-67
2022/06/19 11:58:00;;;;;;;1.95;1.67;;;;;;;31.56;24.55;101376.75;5062220;28;20501;-68
2022/06/19 12:00:31;;;;;;;2.15;1.58;;;;;;;31.52;24.46;101383.97;5057356;28;20458;-67